Collegeville, MN (56321)

8:23 AM CST on January 31, 2015 (GMT -0600)
Saint Johns University Campus | Change Station
CLOSE
Current Station
Personal Weather Station
Location: Collegeville, MN
Elevation: 1200 ft
Nearby Weather Stations

Elev 1200 ft 45.58 °N, 94.39 °W | Updated 4 minutes ago

Overcast
Overcast
25.8 °F
Feels Like 26 °F
N
1.0
Wind Variable Wind from North
Gusts 9.0 mph

Today
High -- | Low -- °F
--% Chance of Precip.
Yesterday
High -- | Low -- °F
Precip. -- in
7:40 AM 5:22 PM
Waxing Gibbous, 90% visible
Pressure 30.18 in
Visibility 8.0 miles
Clouds Overcast 1300 ft
Windchill 26 °F
Dew Point 23 °F
Humidity 89%
Rainfall 0.00 in
Snow Depth Not available.
UV 0.0 out of 12
Pollen .10 out of 12
Air Quality Not available.
Flu Activity Not available.
METAR KSTC 311353Z 01009KT 8SM OVC013 M04/M07 A3018

More Conditions Fewer Conditions

Pressure 30.18 in
Visibility 8.0 miles
Clouds Overcast 1300 ft
Windchill 26 °F
Dew Point 23 °F
Humidity 89%
Rainfall 0.00 in
Snow Depth Not available.
UV 0.0 out of 12
Pollen .10 out of 12
Air Quality Not available.
Flu Activity Not available.
METAR KSTC 311353Z 01009KT 8SM OVC013 M04/M07 A3018

More Conditions Fewer Conditions

10-Day Weather Forecast

Almanac

Astronomy

Jan. 31, 2015 Rise Set
Actual Time
Civil Twilight
Nautical Twilight
Astronomical Twilight
Moon
Length of Visible Light
Length of Day
Tomorrow will be .
, % of the Moon is Illuminated

Today's Extremes

State Highs State Lows

Community

WunderPhotos

Upload Photos

1,792,058 photos uploaded!

WunderBlogs® & News

Nearby

Air Quality

  Air Quality AQ Index Pollutant
Not available.

Snow Depth

Station Depth Elevation

Earthquake Activity

City Distance Mag. Time & Date
Minimum magnitude displayed is 2.5.

Coastal Water Temperatures

Place Temperature

Nearby Weather Stations